createdAt,value
2018-12-19T00:00:19.709Z,1004.02
2018-12-19T00:01:19.702Z,1004.09
2018-12-19T00:02:19.679Z,1004.04
2018-12-19T00:03:19.680Z,1004.00
2018-12-19T00:04:19.684Z,1004.02
2018-12-19T00:05:19.660Z,1004.03
2018-12-19T00:06:19.644Z,1004.01
2018-12-19T00:07:19.629Z,1003.94
2018-12-19T00:08:19.624Z,1003.98
2018-12-19T00:09:19.630Z,1003.91
2018-12-19T00:10:19.597Z,1003.92
2018-12-19T00:11:19.592Z,1003.93
2018-12-19T00:12:19.581Z,1003.88
2018-12-19T00:13:19.567Z,1003.81
2018-12-19T00:14:19.568Z,1003.85
2018-12-19T00:15:19.551Z,1003.81
2018-12-19T00:16:19.541Z,1003.73
2018-12-19T00:17:19.519Z,1003.68
2018-12-19T00:18:19.504Z,1003.72
2018-12-19T00:19:19.522Z,1003.68
2018-12-19T00:20:19.500Z,1003.60
2018-12-19T00:21:19.479Z,1003.62
2018-12-19T00:22:19.471Z,1003.60
2018-12-19T00:23:19.449Z,1003.59
2018-12-19T00:24:19.473Z,1003.56
2018-12-19T00:26:28.636Z,1003.60
2018-12-19T00:27:29.613Z,1003.66
2018-12-19T00:29:28.621Z,1003.64
2018-12-19T00:30:29.576Z,1003.76
2018-12-19T00:31:29.582Z,1003.61
2018-12-19T00:32:29.553Z,1003.65
2018-12-19T00:33:29.546Z,1003.54
2018-12-19T00:34:29.566Z,1003.46
2018-12-19T00:35:29.541Z,1003.39
2018-12-19T00:36:29.518Z,1003.46
2018-12-19T00:37:29.516Z,1003.42
2018-12-19T00:38:29.490Z,1003.40
2018-12-19T00:39:29.506Z,1003.41
2018-12-19T00:40:29.478Z,1003.41
2018-12-19T00:41:29.460Z,1003.36
2018-12-19T00:42:29.451Z,1003.33
2018-12-19T00:43:29.449Z,1003.32
2018-12-19T00:44:29.448Z,1003.21
2018-12-19T00:45:29.422Z,1003.24
2018-12-19T00:46:29.420Z,1003.21
2018-12-19T00:47:29.399Z,1003.18
2018-12-19T00:48:29.453Z,1003.16
2018-12-19T00:49:29.408Z,1003.12
2018-12-19T00:50:29.374Z,1003.12
2018-12-19T00:51:29.367Z,1003.12
2018-12-19T00:52:29.340Z,1003.13
2018-12-19T00:53:29.340Z,1003.11
2018-12-19T00:54:29.336Z,1003.09
2018-12-19T00:55:29.310Z,1003.15
2018-12-19T00:56:29.297Z,1003.08
2018-12-19T00:57:29.284Z,1003.09
2018-12-19T00:58:29.280Z,1003.05
2018-12-19T00:59:29.287Z,1003.04
2018-12-19T01:00:29.264Z,1003.04
2018-12-19T01:01:29.254Z,1003.03
2018-12-19T01:02:29.228Z,1003.06
2018-12-19T01:03:29.231Z,1003.03
2018-12-19T01:04:29.249Z,1003.10
2018-12-19T01:05:29.204Z,1003.03
2018-12-19T01:06:29.188Z,1002.99
2018-12-19T01:07:29.193Z,1002.98
2018-12-19T01:08:29.887Z,1002.94
2018-12-19T01:09:29.181Z,1002.97
2018-12-19T01:10:29.156Z,1003.00
2018-12-19T01:11:29.130Z,1002.93
2018-12-19T01:12:29.135Z,1002.96
2018-12-19T01:13:29.108Z,1002.93
2018-12-19T01:14:29.132Z,1002.94
2018-12-19T01:15:29.095Z,1002.86
2018-12-19T01:16:29.087Z,1002.87
2018-12-19T01:17:29.075Z,1002.94
2018-12-19T01:18:29.068Z,1002.85
2018-12-19T01:19:29.077Z,1002.84
2018-12-19T01:20:29.044Z,1002.80
2018-12-19T01:21:29.025Z,1002.81
2018-12-19T01:22:29.016Z,1002.67
2018-12-19T01:23:29.006Z,1002.59
2018-12-19T01:24:28.991Z,1002.71
2018-12-19T01:25:29.009Z,1002.77
2018-12-19T01:26:28.978Z,1002.81
2018-12-19T01:27:28.972Z,1002.88
2018-12-19T01:28:28.969Z,1002.78
2018-12-19T01:29:28.946Z,1002.84
2018-12-19T01:30:28.956Z,1002.82
2018-12-19T01:31:28.918Z,1002.84
2018-12-19T01:32:28.915Z,1002.86
2018-12-19T01:33:28.906Z,1002.82
2018-12-19T01:34:28.892Z,1002.92
2018-12-19T01:35:28.902Z,1002.86
2018-12-19T01:36:28.874Z,1002.91
2018-12-19T01:37:28.859Z,1002.88
2018-12-19T01:38:28.847Z,1002.88
2018-12-19T01:39:28.832Z,1002.84
2018-12-19T01:40:28.844Z,1002.86
2018-12-19T01:41:28.812Z,1002.86
2018-12-19T01:42:28.804Z,1002.86
2018-12-19T01:43:28.785Z,1002.81
2018-12-19T01:44:28.782Z,1002.83
2018-12-19T01:45:28.795Z,1002.85
2018-12-19T01:46:28.761Z,1002.87
2018-12-19T01:47:28.744Z,1002.92
2018-12-19T01:48:28.752Z,1002.97
2018-12-19T01:49:28.726Z,1003.05
2018-12-19T01:50:28.737Z,1003.09
2018-12-19T01:51:28.705Z,1003.16
2018-12-19T01:52:28.695Z,1003.19
2018-12-19T01:53:28.679Z,1003.20
2018-12-19T01:54:28.662Z,1003.15
2018-12-19T01:55:28.690Z,1003.14
2018-12-19T01:56:28.653Z,1003.07
2018-12-19T01:57:28.641Z,1003.10
2018-12-19T01:58:28.621Z,1003.15
2018-12-19T01:59:28.620Z,1003.16
2018-12-19T02:00:28.617Z,1003.17
2018-12-19T02:01:28.608Z,1003.15
2018-12-19T02:02:28.588Z,1003.09
2018-12-19T02:03:28.569Z,1003.10
2018-12-19T02:04:28.555Z,1003.00
2018-12-19T02:05:28.580Z,1002.91
2018-12-19T02:06:28.542Z,1002.85
2018-12-19T02:07:28.533Z,1002.76
2018-12-19T02:08:28.527Z,1002.75
2018-12-19T02:09:29.090Z,1002.68
2018-12-19T02:10:28.513Z,1002.66
2018-12-19T02:11:28.484Z,1002.64
2018-12-19T02:12:28.472Z,1002.60
2018-12-19T02:13:28.460Z,1002.58
2018-12-19T02:14:28.454Z,1002.53
2018-12-19T02:15:28.474Z,1002.54
2018-12-19T02:16:28.427Z,1002.59
2018-12-19T02:17:28.424Z,1002.48
2018-12-19T02:18:28.414Z,1002.46
2018-12-19T02:19:28.399Z,1002.53
2018-12-19T02:20:28.408Z,1002.51
2018-12-19T02:21:28.385Z,1002.49
2018-12-19T02:22:28.363Z,1002.50
2018-12-19T02:23:28.356Z,1002.48
2018-12-19T02:24:28.340Z,1002.45
2018-12-19T02:25:28.357Z,1002.47
2018-12-19T02:27:37.511Z,1002.42
2018-12-19T02:28:38.513Z,1002.42
2018-12-19T02:29:38.496Z,1002.44
2018-12-19T02:30:38.507Z,1002.48
2018-12-19T02:31:38.478Z,1002.43
2018-12-19T02:32:38.471Z,1002.38
2018-12-19T02:33:38.455Z,1002.34
2018-12-19T02:34:38.441Z,1002.24
2018-12-19T02:35:38.455Z,1002.31
2018-12-19T02:36:38.415Z,1002.27
2018-12-19T02:37:38.403Z,1002.27
2018-12-19T02:38:38.406Z,1002.37
2018-12-19T02:39:38.388Z,1002.29
2018-12-19T02:40:38.390Z,1002.32
2018-12-19T02:41:38.364Z,1002.36
2018-12-19T02:42:38.345Z,1002.30
2018-12-19T02:43:38.357Z,1002.33
2018-12-19T02:44:38.325Z,1002.43
2018-12-19T02:45:38.360Z,1002.34
2018-12-19T02:46:38.324Z,1002.38
2018-12-19T02:47:38.299Z,1002.41
2018-12-19T02:48:38.316Z,1002.26
2018-12-19T02:49:38.284Z,1002.20
2018-12-19T02:50:38.345Z,1002.31
2018-12-19T02:51:38.261Z,1002.36
2018-12-19T02:52:38.256Z,1002.26
2018-12-19T02:53:38.241Z,1002.34
2018-12-19T02:54:38.246Z,1002.35
2018-12-19T02:55:38.247Z,1002.29
2018-12-19T02:56:38.207Z,1002.37
2018-12-19T02:57:38.205Z,1002.38
2018-12-19T02:58:38.187Z,1002.30
2018-12-19T02:59:38.168Z,1002.28
2018-12-19T03:00:38.186Z,1002.25
2018-12-19T03:01:38.156Z,1002.27
2018-12-19T03:02:38.137Z,1002.34
2018-12-19T03:03:38.818Z,1002.30
2018-12-19T03:04:38.111Z,1002.38
2018-12-19T03:05:38.133Z,1002.30
2018-12-19T03:06:38.087Z,1002.42
2018-12-19T03:07:38.087Z,1002.47
2018-12-19T03:08:38.080Z,1002.45
2018-12-19T03:09:42.936Z,1002.39
2018-12-19T03:10:38.076Z,1002.44
2018-12-19T03:11:38.042Z,1002.43
2018-12-19T03:12:38.035Z,1002.44
2018-12-19T03:13:38.015Z,1002.43
2018-12-19T03:14:38.018Z,1002.44
2018-12-19T03:15:38.005Z,1002.43
2018-12-19T03:16:37.988Z,1002.46
2018-12-19T03:17:37.973Z,1002.55
2018-12-19T03:18:37.964Z,1002.63
2018-12-19T03:19:37.947Z,1002.60
2018-12-19T03:20:37.934Z,1002.63
2018-12-19T03:21:38.297Z,1002.66
2018-12-19T03:22:37.925Z,1002.62
2018-12-19T03:23:37.910Z,1002.64
2018-12-19T03:24:37.905Z,1002.67
2018-12-19T03:25:37.893Z,1002.74
2018-12-19T03:26:37.884Z,1002.71
2018-12-19T03:27:37.887Z,1002.75
2018-12-19T03:28:37.860Z,1002.73
2018-12-19T03:29:37.853Z,1002.72
2018-12-19T03:30:37.841Z,1002.69
2018-12-19T03:31:37.820Z,1002.72
2018-12-19T03:32:37.836Z,1002.71
2018-12-19T03:33:37.820Z,1002.67
2018-12-19T03:34:37.782Z,1002.62
2018-12-19T03:35:37.777Z,1002.57
2018-12-19T03:36:37.777Z,1002.56
2018-12-19T03:37:37.777Z,1002.61
2018-12-19T03:38:37.753Z,1002.56
2018-12-19T03:39:37.744Z,1002.55
2018-12-19T03:40:37.732Z,1002.55
2018-12-19T03:41:37.732Z,1002.56
2018-12-19T03:42:37.730Z,1002.52
2018-12-19T03:43:37.694Z,1002.58
2018-12-19T03:44:37.677Z,1002.61
2018-12-19T03:45:37.672Z,1002.58
2018-12-19T03:46:37.661Z,1002.57
2018-12-19T03:47:37.665Z,1002.62
2018-12-19T03:48:37.643Z,1002.55
2018-12-19T03:49:37.635Z,1002.53
2018-12-19T03:50:37.633Z,1002.55
2018-12-19T03:51:37.610Z,1002.56
2018-12-19T03:52:37.625Z,1002.52
2018-12-19T03:53:37.587Z,1002.52
2018-12-19T03:54:37.570Z,1002.58
2018-12-19T03:55:37.565Z,1002.54
2018-12-19T03:56:37.550Z,1002.52
2018-12-19T03:57:37.543Z,1002.49
2018-12-19T03:58:37.535Z,1002.48
2018-12-19T03:59:37.522Z,1002.51
2018-12-19T04:00:37.499Z,1002.44
2018-12-19T04:01:37.516Z,1002.44
2018-12-19T04:02:37.520Z,1002.40
2018-12-19T04:03:37.480Z,1002.45
2018-12-19T04:04:37.463Z,1002.48
2018-12-19T04:05:37.453Z,1002.44
2018-12-19T04:06:37.441Z,1002.55
2018-12-19T04:07:37.471Z,1002.55
2018-12-19T04:08:37.422Z,1002.57
2018-12-19T04:09:37.415Z,1002.58
2018-12-19T04:10:37.404Z,1002.62
2018-12-19T04:11:37.393Z,1002.55
2018-12-19T04:12:37.406Z,1002.55
2018-12-19T04:13:37.364Z,1002.48
2018-12-19T04:14:37.358Z,1002.53
2018-12-19T04:15:37.343Z,1002.50
2018-12-19T04:16:37.342Z,1002.52
2018-12-19T04:17:37.347Z,1002.50
2018-12-19T04:18:37.304Z,1002.58
2018-12-19T04:19:37.313Z,1002.55
2018-12-19T04:20:37.293Z,1002.56
2018-12-19T04:21:37.278Z,1002.54
2018-12-19T04:22:37.282Z,1002.58
2018-12-19T04:23:37.264Z,1002.58
2018-12-19T04:24:37.262Z,1002.58
2018-12-19T04:25:37.232Z,1002.57
2018-12-19T04:26:37.221Z,1002.53
2018-12-19T04:28:46.422Z,1002.66
2018-12-19T04:29:47.384Z,1002.65
2018-12-19T04:30:47.379Z,1002.63
2018-12-19T04:31:47.369Z,1002.61
2018-12-19T04:32:47.357Z,1002.56
2018-12-19T04:33:47.382Z,1002.52
2018-12-19T04:34:47.338Z,1002.56
2018-12-19T04:35:47.330Z,1002.54
2018-12-19T04:36:47.319Z,1002.45
2018-12-19T04:37:47.305Z,1002.40
2018-12-19T04:38:47.314Z,1002.36
2018-12-19T04:39:47.282Z,1002.30
2018-12-19T04:40:47.267Z,1002.22
2018-12-19T04:41:47.252Z,1002.14
2018-12-19T04:42:47.243Z,1002.18
2018-12-19T04:43:47.261Z,1002.13
2018-12-19T04:44:47.231Z,1002.15
2018-12-19T04:45:47.213Z,1002.13
2018-12-19T04:46:47.202Z,1002.12
2018-12-19T04:47:47.195Z,1002.11
2018-12-19T04:48:47.217Z,1002.12
2018-12-19T04:49:47.174Z,1002.14
2018-12-19T04:50:48.147Z,1002.16
2018-12-19T04:51:47.152Z,1002.12
2018-12-19T04:52:47.128Z,1002.09
2018-12-19T04:53:47.141Z,1002.06
2018-12-19T04:54:47.118Z,1002.07
2018-12-19T04:55:47.102Z,1002.03
2018-12-19T04:56:47.092Z,1002.01
2018-12-19T04:57:47.082Z,1002.03
2018-12-19T04:58:47.100Z,1002.00
2018-12-19T04:59:47.066Z,1002.05
2018-12-19T05:00:47.059Z,1002.05
2018-12-19T05:01:47.048Z,1002.08
2018-12-19T05:02:47.026Z,1002.07
2018-12-19T05:03:47.011Z,1002.07
2018-12-19T05:04:47.002Z,1002.06
2018-12-19T05:05:46.997Z,1002.07
2018-12-19T05:06:46.984Z,1002.10
2018-12-19T05:07:46.966Z,1002.07
2018-12-19T05:08:46.960Z,1002.01
2018-12-19T05:09:46.968Z,1002.10
2018-12-19T05:10:46.940Z,1002.08
2018-12-19T05:11:46.936Z,1002.00
2018-12-19T05:12:46.912Z,1001.95
2018-12-19T05:13:46.952Z,1001.93
2018-12-19T05:14:46.909Z,1001.93
2018-12-19T05:15:46.877Z,1001.90
2018-12-19T05:16:46.866Z,1001.92
2018-12-19T05:17:46.860Z,1001.95
2018-12-19T05:18:46.854Z,1001.94
2018-12-19T05:19:46.854Z,1002.02
2018-12-19T05:20:46.831Z,1002.04
2018-12-19T05:21:46.806Z,1002.00
2018-12-19T05:22:46.809Z,1002.04
2018-12-19T05:23:46.795Z,1002.05
2018-12-19T05:24:46.803Z,1002.07
2018-12-19T05:25:46.776Z,1002.10
2018-12-19T05:26:46.758Z,1002.06
2018-12-19T05:27:46.753Z,1001.98
2018-12-19T05:28:46.738Z,1001.95
2018-12-19T05:29:46.757Z,1001.97
2018-12-19T05:30:46.725Z,1002.02
2018-12-19T05:31:46.699Z,1001.99
2018-12-19T05:32:46.696Z,1002.04
2018-12-19T05:33:46.686Z,1002.10
2018-12-19T05:34:46.697Z,1002.06
2018-12-19T05:35:46.680Z,1002.03
2018-12-19T05:36:46.642Z,1002.01
2018-12-19T05:37:46.633Z,1001.99
2018-12-19T05:38:46.638Z,1002.02
2018-12-19T05:39:46.633Z,1002.07
2018-12-19T05:40:46.603Z,1002.02
2018-12-19T05:41:46.587Z,1002.00
2018-12-19T05:42:46.597Z,1002.07
2018-12-19T05:43:46.568Z,1002.04
2018-12-19T05:44:46.585Z,1002.09
2018-12-19T05:45:46.569Z,1002.04
2018-12-19T05:46:46.542Z,1002.00
2018-12-19T05:47:46.538Z,1001.96
2018-12-19T05:48:46.514Z,1001.97
2018-12-19T05:49:46.534Z,1001.99
2018-12-19T05:50:46.501Z,1002.03
2018-12-19T05:51:46.489Z,1002.03
2018-12-19T05:52:46.484Z,1002.02
2018-12-19T05:53:46.475Z,1001.98
2018-12-19T05:54:46.473Z,1001.98
2018-12-19T05:55:46.445Z,1002.05
2018-12-19T05:56:46.434Z,1001.98
2018-12-19T05:57:46.427Z,1001.95
2018-12-19T05:58:46.408Z,1001.96
2018-12-19T05:59:46.422Z,1002.05
2018-12-19T06:00:46.396Z,1002.07
2018-12-19T06:01:46.379Z,1002.07
2018-12-19T06:02:46.363Z,1002.07
2018-12-19T06:03:46.364Z,1002.04
2018-12-19T06:04:46.358Z,1001.97
2018-12-19T06:05:46.353Z,1002.03
2018-12-19T06:06:46.329Z,1002.05
2018-12-19T06:07:46.307Z,1002.09
2018-12-19T06:08:46.300Z,1002.05
2018-12-19T06:09:46.299Z,1002.07
2018-12-19T06:10:46.283Z,1002.08
2018-12-19T06:11:46.279Z,1002.10
2018-12-19T06:12:46.251Z,1002.14
2018-12-19T06:13:46.245Z,1002.12
2018-12-19T06:14:46.255Z,1002.14
2018-12-19T06:15:46.227Z,1002.09
2018-12-19T06:16:46.208Z,1002.10
2018-12-19T06:17:46.208Z,1002.08
2018-12-19T06:18:46.179Z,1002.11
2018-12-19T06:19:46.190Z,1002.07
2018-12-19T06:20:46.162Z,1002.09
2018-12-19T06:21:46.159Z,1002.16
2018-12-19T06:22:46.139Z,1002.19
2018-12-19T06:23:46.128Z,1002.15
2018-12-19T06:24:46.132Z,1002.18
2018-12-19T06:25:46.113Z,1002.20
2018-12-19T06:26:46.092Z,1002.22
2018-12-19T06:27:46.085Z,1002.22
2018-12-19T06:29:55.283Z,1002.23
2018-12-19T06:30:56.276Z,1002.21
2018-12-19T06:31:56.247Z,1002.24
2018-12-19T06:32:56.236Z,1002.25
2018-12-19T06:33:56.220Z,1002.23
2018-12-19T06:34:56.237Z,1002.28
2018-12-19T06:35:56.205Z,1002.25
2018-12-19T06:36:56.207Z,1002.27
2018-12-19T06:37:56.185Z,1002.33
2018-12-19T06:38:56.164Z,1002.33
2018-12-19T06:39:56.172Z,1002.35
2018-12-19T06:40:56.151Z,1002.32
2018-12-19T06:41:56.128Z,1002.37
2018-12-19T06:42:56.116Z,1002.35
2018-12-19T06:43:56.115Z,1002.42
2018-12-19T06:44:56.125Z,1002.45
2018-12-19T06:45:56.104Z,1002.37
2018-12-19T06:46:56.088Z,1002.41
2018-12-19T06:47:56.085Z,1002.40
2018-12-19T06:48:56.064Z,1002.39
2018-12-19T06:49:56.070Z,1002.42
2018-12-19T06:50:56.038Z,1002.45
2018-12-19T06:51:56.045Z,1002.46
2018-12-19T06:52:56.019Z,1002.38
2018-12-19T06:53:56.012Z,1002.31
2018-12-19T06:54:56.030Z,1002.25
2018-12-19T06:55:56.003Z,1002.36
2018-12-19T06:56:55.974Z,1002.33
2018-12-19T06:57:55.960Z,1002.36
2018-12-19T06:58:55.953Z,1002.35
2018-12-19T06:59:55.942Z,1002.38
2018-12-19T07:00:56.122Z,1002.45
2018-12-19T07:01:55.958Z,1002.38
2018-12-19T07:02:55.901Z,1002.43
2018-12-19T07:03:55.897Z,1002.44
2018-12-19T07:04:55.911Z,1002.42
2018-12-19T07:05:55.903Z,1002.49
2018-12-19T07:06:55.916Z,1002.51
2018-12-19T07:07:56.038Z,1002.50
2018-12-19T07:08:55.888Z,1002.52
2018-12-19T07:09:55.837Z,1002.49
2018-12-19T07:10:55.854Z,1002.53
2018-12-19T07:11:55.855Z,1002.51
2018-12-19T07:12:55.806Z,1002.51
2018-12-19T07:13:55.789Z,1002.50
2018-12-19T07:14:55.785Z,1002.50
2018-12-19T07:15:55.894Z,1002.53
2018-12-19T07:16:56.029Z,1002.50
2018-12-19T07:17:56.502Z,1002.50
2018-12-19T07:18:55.737Z,1002.52
2018-12-19T07:19:55.728Z,1002.49
2018-12-19T07:20:55.745Z,1002.49
2018-12-19T07:21:55.709Z,1002.45
2018-12-19T07:22:55.688Z,1002.52
2018-12-19T07:23:55.675Z,1002.48
2018-12-19T07:24:55.673Z,1002.50
2018-12-19T07:25:55.692Z,1002.50
2018-12-19T07:26:55.654Z,1002.50
2018-12-19T07:27:55.637Z,1002.49
2018-12-19T07:28:55.633Z,1002.47
2018-12-19T07:29:55.625Z,1002.47
2018-12-19T07:30:55.628Z,1002.53
2018-12-19T07:31:55.616Z,1002.56
2018-12-19T07:32:55.597Z,1002.58
2018-12-19T07:33:55.574Z,1002.54
2018-12-19T07:34:55.583Z,1002.56
2018-12-19T07:35:55.580Z,1002.53
2018-12-19T07:36:55.549Z,1002.52
2018-12-19T07:37:55.542Z,1002.52
2018-12-19T07:38:55.537Z,1002.54
2018-12-19T07:39:56.329Z,1002.55
2018-12-19T07:40:55.520Z,1002.52
2018-12-19T07:41:55.487Z,1002.53
2018-12-19T07:42:55.548Z,1002.54
2018-12-19T07:43:55.473Z,1002.53
2018-12-19T07:44:55.465Z,1002.56
2018-12-19T07:45:55.470Z,1002.57
2018-12-19T07:46:55.454Z,1002.62
2018-12-19T07:47:55.425Z,1002.64
2018-12-19T07:48:55.421Z,1002.64
2018-12-19T07:49:55.409Z,1002.62
2018-12-19T07:50:55.985Z,1002.69
2018-12-19T07:51:55.395Z,1002.66
2018-12-19T07:52:55.372Z,1002.62
2018-12-19T07:53:55.364Z,1002.59
2018-12-19T07:54:55.370Z,1002.63
2018-12-19T07:55:55.369Z,1002.63
2018-12-19T07:56:55.335Z,1002.69
2018-12-19T07:57:55.322Z,1002.69
2018-12-19T07:58:55.311Z,1002.64
2018-12-19T07:59:55.298Z,1002.62
2018-12-19T08:00:55.314Z,1002.65
2018-12-19T08:01:55.273Z,1002.62
2018-12-19T08:02:55.258Z,1002.62
2018-12-19T08:03:55.250Z,1002.68
2018-12-19T08:04:55.393Z,1002.68
2018-12-19T08:05:55.258Z,1002.65
2018-12-19T08:06:55.274Z,1002.65
2018-12-19T08:07:55.233Z,1002.66
2018-12-19T08:08:55.193Z,1002.73
2018-12-19T08:09:55.224Z,1002.71
2018-12-19T08:10:55.350Z,1002.73
2018-12-19T08:11:55.179Z,1002.69
2018-12-19T08:12:55.207Z,1002.69
2018-12-19T08:13:55.147Z,1002.69
2018-12-19T08:14:55.142Z,1002.68
2018-12-19T08:15:55.680Z,1002.70
2018-12-19T08:16:55.117Z,1002.68
2018-12-19T08:17:55.096Z,1002.76
2018-12-19T08:18:55.092Z,1002.74
2018-12-19T08:19:55.080Z,1002.72
2018-12-19T08:20:55.361Z,1002.75
2018-12-19T08:21:55.058Z,1002.74
2018-12-19T08:22:55.038Z,1002.77
2018-12-19T08:23:55.126Z,1002.81
2018-12-19T08:24:55.019Z,1002.80
2018-12-19T08:25:55.063Z,1002.84
2018-12-19T08:26:55.007Z,1002.87
2018-12-19T08:27:54.997Z,1002.87
2018-12-19T08:28:54.985Z,1002.87
2018-12-19T08:31:05.237Z,1002.86
2018-12-19T08:32:06.207Z,1002.88
2018-12-19T08:33:06.205Z,1002.87
2018-12-19T08:34:06.183Z,1002.87
2018-12-19T08:35:06.935Z,1002.87
2018-12-19T08:36:06.200Z,1002.90
2018-12-19T08:37:06.226Z,1002.91
2018-12-19T08:38:06.529Z,1002.93
2018-12-19T08:39:06.133Z,1002.90
2018-12-19T08:40:06.875Z,1002.94
2018-12-19T08:41:06.127Z,1002.94
2018-12-19T08:42:06.102Z,1002.97
2018-12-19T08:43:06.191Z,1003.01
2018-12-19T08:44:06.172Z,1002.99
2018-12-19T08:45:06.082Z,1002.98
2018-12-19T08:46:06.079Z,1003.01
2018-12-19T08:47:06.078Z,1003.07
2018-12-19T08:48:06.025Z,1003.07
2018-12-19T08:49:06.024Z,1003.05
2018-12-19T08:50:06.020Z,1003.09
2018-12-19T08:51:06.007Z,1003.06
2018-12-19T08:52:05.987Z,1003.10
2018-12-19T08:53:05.982Z,1003.13
2018-12-19T08:54:05.963Z,1003.17
2018-12-19T08:55:06.913Z,1003.16
2018-12-19T08:56:05.959Z,1003.21
2018-12-19T08:57:05.957Z,1003.18
2018-12-19T08:58:05.935Z,1003.19
2018-12-19T08:59:05.917Z,1003.21
2018-12-19T09:00:05.924Z,1003.16
2018-12-19T09:01:05.897Z,1003.16
2018-12-19T09:02:05.906Z,1003.25
2018-12-19T09:03:05.868Z,1003.27
2018-12-19T09:04:06.023Z,1003.27
2018-12-19T09:05:05.847Z,1003.30
2018-12-19T09:06:05.834Z,1003.25
2018-12-19T09:07:05.852Z,1003.27
2018-12-19T09:08:05.814Z,1003.25
2018-12-19T09:09:06.800Z,1003.25
2018-12-19T09:10:05.800Z,1003.30
2018-12-19T09:11:06.165Z,1003.33
2018-12-19T09:12:05.803Z,1003.36
2018-12-19T09:13:05.794Z,1003.32
2018-12-19T09:14:05.748Z,1003.32
2018-12-19T09:15:06.773Z,1003.33
2018-12-19T09:16:05.765Z,1003.37
2018-12-19T09:17:05.739Z,1003.32
2018-12-19T09:18:05.726Z,1003.35
2018-12-19T09:19:05.705Z,1003.37
2018-12-19T09:20:05.688Z,1003.35
2018-12-19T09:21:05.698Z,1003.39
2018-12-19T09:22:05.687Z,1003.40
2018-12-19T09:23:05.672Z,1003.39
2018-12-19T09:24:05.630Z,1003.34
2018-12-19T09:25:05.631Z,1003.38
2018-12-19T09:26:05.628Z,1003.38
2018-12-19T09:27:06.207Z,1003.41
2018-12-19T09:28:05.606Z,1003.40
2018-12-19T09:29:05.580Z,1003.42
2018-12-19T09:30:05.641Z,1003.43
2018-12-19T09:31:05.566Z,1003.47
2018-12-19T09:32:05.643Z,1003.49
2018-12-19T09:33:05.564Z,1003.48
2018-12-19T09:34:05.527Z,1003.51
2018-12-19T09:35:06.378Z,1003.50
2018-12-19T09:36:05.502Z,1003.54
2018-12-19T09:37:05.495Z,1003.48
2018-12-19T09:38:05.502Z,1003.47
2018-12-19T09:39:05.534Z,1003.47
2018-12-19T09:40:05.467Z,1003.50
2018-12-19T09:41:12.074Z,1003.51
2018-12-19T09:42:05.445Z,1003.50
2018-12-19T09:43:05.460Z,1003.51
2018-12-19T09:44:05.428Z,1003.52
2018-12-19T09:45:05.426Z,1003.55
2018-12-19T09:46:05.391Z,1003.50
2018-12-19T09:47:05.386Z,1003.49
2018-12-19T09:48:05.395Z,1003.50
2018-12-19T09:49:05.377Z,1003.52
2018-12-19T09:50:05.371Z,1003.51
2018-12-19T09:51:05.343Z,1003.50
2018-12-19T09:52:05.337Z,1003.50
2018-12-19T09:53:07.356Z,1003.48
2018-12-19T09:54:05.312Z,1003.44
2018-12-19T09:55:05.300Z,1003.49
2018-12-19T09:56:05.286Z,1003.47
2018-12-19T09:57:05.276Z,1003.46
2018-12-19T09:58:05.265Z,1003.44
2018-12-19T09:59:05.289Z,1003.51
2018-12-19T10:00:05.298Z,1003.50
2018-12-19T10:01:05.893Z,1003.51
2018-12-19T10:02:05.220Z,1003.50
2018-12-19T10:03:05.209Z,1003.45
2018-12-19T10:04:05.227Z,1003.51
2018-12-19T10:05:05.243Z,1003.48
2018-12-19T10:06:05.176Z,1003.49
2018-12-19T10:07:05.163Z,1003.51
2018-12-19T10:08:05.164Z,1003.52
2018-12-19T10:09:05.171Z,1003.52
2018-12-19T10:10:05.141Z,1003.52
2018-12-19T10:11:05.132Z,1003.46
2018-12-19T10:12:05.130Z,1003.44
2018-12-19T10:13:05.092Z,1003.47
2018-12-19T10:14:05.098Z,1003.45
2018-12-19T10:15:05.088Z,1003.44
2018-12-19T10:16:05.070Z,1003.42
2018-12-19T10:17:05.054Z,1003.41
2018-12-19T10:18:05.040Z,1003.38
2018-12-19T10:19:05.061Z,1003.40
2018-12-19T10:20:05.104Z,1003.38
2018-12-19T10:21:05.023Z,1003.40
2018-12-19T10:22:05.150Z,1003.38
2018-12-19T10:23:04.998Z,1003.40
2018-12-19T10:24:04.978Z,1003.38
2018-12-19T10:25:05.010Z,1003.34
2018-12-19T10:26:05.106Z,1003.35
2018-12-19T10:27:05.982Z,1003.40
2018-12-19T10:28:05.171Z,1003.40
2018-12-19T10:29:04.955Z,1003.39
2018-12-19T10:30:04.992Z,1003.41
2018-12-19T10:32:25.936Z,1003.38
2018-12-19T10:33:26.758Z,1003.41
2018-12-19T10:34:27.179Z,1003.37
2018-12-19T10:35:26.740Z,1003.41
2018-12-19T10:36:26.785Z,1003.41
2018-12-19T10:37:26.688Z,1003.44
2018-12-19T10:38:26.678Z,1003.39
2018-12-19T10:39:26.656Z,1003.39
2018-12-19T10:40:26.678Z,1003.37
2018-12-19T10:41:26.653Z,1003.46
2018-12-19T10:42:26.632Z,1003.45
2018-12-19T10:43:26.627Z,1003.41
2018-12-19T10:44:26.613Z,1003.44
2018-12-19T10:45:26.622Z,1003.42
2018-12-19T10:46:26.594Z,1003.38
2018-12-19T10:47:26.627Z,1003.42
2018-12-19T10:48:26.574Z,1003.45
2018-12-19T10:49:26.558Z,1003.50
2018-12-19T10:50:26.588Z,1003.46
2018-12-19T10:51:26.542Z,1003.50
2018-12-19T10:52:26.519Z,1003.51
2018-12-19T10:53:26.517Z,1003.47
2018-12-19T10:54:26.503Z,1003.50
2018-12-19T10:55:26.528Z,1003.51
2018-12-19T10:56:26.498Z,1003.46
2018-12-19T10:57:26.502Z,1003.48
2018-12-19T10:58:26.581Z,1003.49
2018-12-19T10:59:26.459Z,1003.46
2018-12-19T11:00:26.467Z,1003.44
2018-12-19T11:01:26.428Z,1003.43
2018-12-19T11:02:27.392Z,1003.41
2018-12-19T11:03:26.401Z,1003.42
2018-12-19T11:04:26.403Z,1003.39
2018-12-19T11:05:26.416Z,1003.47
2018-12-19T11:06:26.424Z,1003.45
2018-12-19T11:07:26.369Z,1003.40
2018-12-19T11:08:26.343Z,1003.42
2018-12-19T11:09:26.352Z,1003.39
2018-12-19T11:10:26.358Z,1003.39
2018-12-19T11:11:32.061Z,1003.40
2018-12-19T11:12:26.319Z,1003.39
2018-12-19T11:13:26.289Z,1003.37
2018-12-19T11:14:26.285Z,1003.38
2018-12-19T11:15:26.298Z,1003.37
2018-12-19T11:16:26.261Z,1003.37
2018-12-19T11:17:26.250Z,1003.36
2018-12-19T11:18:26.250Z,1003.40
2018-12-19T11:19:26.220Z,1003.37
2018-12-19T11:20:26.245Z,1003.33
2018-12-19T11:21:28.859Z,1003.37
2018-12-19T11:22:26.189Z,1003.35
2018-12-19T11:23:26.182Z,1003.29
2018-12-19T11:24:26.175Z,1003.32
2018-12-19T11:25:26.183Z,1003.31
2018-12-19T11:26:26.161Z,1003.32
2018-12-19T11:27:26.136Z,1003.33
2018-12-19T11:28:27.067Z,1003.27
2018-12-19T11:29:26.145Z,1003.26
2018-12-19T11:30:26.130Z,1003.31
2018-12-19T11:31:26.096Z,1003.29
2018-12-19T11:32:26.076Z,1003.32
2018-12-19T11:33:26.175Z,1003.31
2018-12-19T11:34:26.055Z,1003.25
2018-12-19T11:35:26.067Z,1003.19
2018-12-19T11:36:26.041Z,1003.18
2018-12-19T11:37:26.018Z,1003.18
2018-12-19T11:38:26.041Z,1003.18
2018-12-19T11:39:26.009Z,1003.20
2018-12-19T11:40:25.982Z,1003.18
2018-12-19T11:41:26.003Z,1003.14
2018-12-19T11:42:25.974Z,1003.16
2018-12-19T11:43:25.961Z,1003.14
2018-12-19T11:44:25.954Z,1003.14
2018-12-19T11:45:26.003Z,1003.16
2018-12-19T11:46:25.954Z,1003.18
2018-12-19T11:47:25.921Z,1003.18
2018-12-19T11:48:25.910Z,1003.19
2018-12-19T11:49:25.885Z,1003.20
2018-12-19T11:50:26.903Z,1003.16
2018-12-19T11:51:25.888Z,1003.15
2018-12-19T11:52:25.863Z,1003.14
2018-12-19T11:53:25.840Z,1003.14
2018-12-19T11:54:25.834Z,1003.08
2018-12-19T11:55:25.843Z,1003.11
2018-12-19T11:56:26.166Z,1003.12
2018-12-19T11:57:25.822Z,1003.11
2018-12-19T11:58:25.795Z,1003.15
2018-12-19T11:59:25.827Z,1003.10
2018-12-19T12:00:25.800Z,1003.08
2018-12-19T12:01:25.765Z,1003.03
2018-12-19T12:02:25.772Z,1003.08
2018-12-19T12:03:25.943Z,1003.07
2018-12-19T12:04:25.720Z,1003.14
2018-12-19T12:05:25.709Z,1003.09
2018-12-19T12:06:25.711Z,1003.12
2018-12-19T12:07:25.711Z,1003.16
2018-12-19T12:08:25.702Z,1003.13
2018-12-19T12:09:25.737Z,1003.08
2018-12-19T12:10:25.668Z,1003.11
2018-12-19T12:11:25.646Z,1003.08
2018-12-19T12:12:25.673Z,1003.10
2018-12-19T12:13:25.693Z,1003.10